Time;durP1;ratioP1;P1;durP2;ratioP2;P2;SDS_P1;SDS_P2;PMS_P1;PMS_P2;Temp;Humidity;BMP_temperature;BMP_pressure;BME280_temperature;BME280_humidity;BME280_pressure;Samples;Min_cycle;Max_cycle;Signal;HPM_P1;HPM_P2
2020/12/11 00:00:07;;;;;;;23.8;21.2;;;;;;;-0.5;81.0;100030.0;;;;
2020/12/11 00:01:11;;;;;;;23.8;21.2;;;;;;;-0.6;80.9;100020.0;;;;
2020/12/11 00:02:08;;;;;;;23.8;21.2;;;;;;;-0.7;81.2;100020.0;;;;
2020/12/11 00:03:07;;;;;;;23.8;21.2;;;;;;;-0.5;81.1;100020.0;;;;
2020/12/11 00:04:07;;;;;;;23.8;21.2;;;;;;;-0.6;81.1;100020.0;;;;
2020/12/11 00:06:07;;;;;;;23.8;21.2;;;;;;;-0.7;81.3;100010.0;;;;
2020/12/11 00:08:08;;;;;;;23.8;21.2;;;;;;;-0.9;81.7;100000.0;;;;
2020/12/11 00:10:10;;;;;;;23.8;21.2;;;;;;;-0.7;81.7;100000.0;;;;
2020/12/11 00:11:07;;;;;;;23.8;21.2;;;;;;;-0.8;81.6;100000.0;;;;
2020/12/11 00:16:08;;;;;;;23.8;21.2;;;;;;;-0.7;81.6;99990.0;;;;
2020/12/11 00:19:07;;;;;;;23.8;21.2;;;;;;;-0.6;81.3;99990.0;;;;
2020/12/11 00:21:07;;;;;;;23.8;21.2;;;;;;;-0.5;81.0;99990.0;;;;
2020/12/11 00:25:08;;;;;;;25.8;21.4;;;;;;;-0.4;80.8;99990.0;;;;
2020/12/11 00:26:07;;;;;;;25.8;21.4;;;;;;;-0.2;80.4;99990.0;;;;
2020/12/11 00:27:07;;;;;;;25.8;21.4;;;;;;;-0.3;80.3;99990.0;;;;
2020/12/11 00:31:07;;;;;;;25.8;21.4;;;;;;;-0.4;80.0;99990.0;;;;
2020/12/11 00:32:07;;;;;;;25.8;21.4;;;;;;;-0.3;80.2;100000.0;;;;
2020/12/11 00:34:07;;;;;;;25.8;21.4;;;;;;;-0.5;80.3;99990.0;;;;
2020/12/11 00:36:07;;;;;;;25.8;21.4;;;;;;;-0.4;80.3;99980.0;;;;
2020/12/11 00:41:07;;;;;;;25.8;21.4;;;;;;;-0.5;80.4;99980.0;;;;
2020/12/11 00:43:09;;;;;;;25.8;21.4;;;;;;;-0.4;80.3;99970.0;;;;
2020/12/11 00:48:07;;;;;;;25.8;21.4;;;;;;;-0.3;80.0;99950.0;;;;
2020/12/11 00:49:07;;;;;;;25.8;21.4;;;;;;;-0.4;80.1;99950.0;;;;
2020/12/11 00:50:07;;;;;;;25.8;21.4;;;;;;;-0.3;79.9;99950.0;;;;
2020/12/11 00:53:07;;;;;;;25.8;21.4;;;;;;;-0.2;79.7;99950.0;;;;
2020/12/11 00:54:07;;;;;;;25.8;21.4;;;;;;;-0.3;79.8;99950.0;;;;
2020/12/11 00:56:08;;;;;;;24.1;21.1;;;;;;;-0.4;79.8;99940.0;;;;
2020/12/11 01:00:11;;;;;;;24.1;21.1;;;;;;;-0.3;79.7;99940.0;;;;
2020/12/11 01:01:07;;;;;;;24.1;21.1;;;;;;;-0.4;79.8;99940.0;;;;
2020/12/11 01:05:08;;;;;;;24.1;21.1;;;;;;;-0.3;79.8;99930.0;;;;
2020/12/11 01:06:09;;;;;;;24.1;21.1;;;;;;;-0.4;79.7;99930.0;;;;
2020/12/11 01:07:07;;;;;;;24.1;21.1;;;;;;;-0.3;79.6;99930.0;;;;
2020/12/11 01:08:07;;;;;;;24.1;21.1;;;;;;;-0.4;79.8;99930.0;;;;
2020/12/11 01:14:07;;;;;;;24.1;21.1;;;;;;;-0.5;79.7;99920.0;;;;
2020/12/11 01:15:07;;;;;;;24.1;21.1;;;;;;;-0.4;79.8;99920.0;;;;
2020/12/11 01:17:07;;;;;;;24.1;21.1;;;;;;;-0.5;80.1;99920.0;;;;
2020/12/11 01:19:07;;;;;;;24.1;21.1;;;;;;;-0.4;80.2;99920.0;;;;
2020/12/11 01:21:07;;;;;;;24.1;21.1;;;;;;;-0.3;79.5;99910.0;;;;
2020/12/11 01:22:07;;;;;;;24.1;21.1;;;;;;;-0.4;79.3;99900.0;;;;
2020/12/11 01:23:07;;;;;;;24.1;21.1;;;;;;;-0.5;80.0;99910.0;;;;
2020/12/11 01:25:07;;;;;;;24.1;21.6;;;;;;;-0.4;79.8;99910.0;;;;
2020/12/11 01:26:08;;;;;;;24.1;21.6;;;;;;;-0.5;79.8;99900.0;;;;
2020/12/11 01:31:07;;;;;;;24.1;21.6;;;;;;;-0.6;80.0;99890.0;;;;
2020/12/11 01:34:07;;;;;;;24.1;21.6;;;;;;;-0.5;80.1;99880.0;;;;
2020/12/11 01:35:07;;;;;;;24.1;21.6;;;;;;;-0.6;80.1;99880.0;;;;
2020/12/11 01:37:07;;;;;;;24.1;21.6;;;;;;;-0.7;80.6;99870.0;;;;
2020/12/11 01:38:07;;;;;;;24.1;21.6;;;;;;;-0.5;80.4;99870.0;;;;
2020/12/11 01:40:07;;;;;;;24.1;21.6;;;;;;;-0.6;80.2;99870.0;;;;
2020/12/11 01:41:07;;;;;;;24.1;21.6;;;;;;;-0.7;80.7;99860.0;;;;
2020/12/11 01:43:07;;;;;;;24.1;21.6;;;;;;;-0.9;81.2;99860.0;;;;
2020/12/11 01:44:08;;;;;;;24.1;21.6;;;;;;;-0.8;81.4;99850.0;;;;
2020/12/11 01:45:08;;;;;;;24.1;21.6;;;;;;;-0.7;81.0;99850.0;;;;
2020/12/11 01:47:08;;;;;;;24.1;21.6;;;;;;;-0.6;80.5;99840.0;;;;
2020/12/11 01:48:07;;;;;;;24.1;21.6;;;;;;;-0.7;80.4;99840.0;;;;
2020/12/11 01:50:18;;;;;;;24.1;21.6;;;;;;;-0.6;80.7;99830.0;;;;
2020/12/11 01:52:08;;;;;;;24.1;21.6;;;;;;;-0.8;80.4;99820.0;;;;
2020/12/11 01:56:14;;;;;;;25.4;21.5;;;;;;;-0.7;80.6;99820.0;;;;
2020/12/11 01:58:13;;;;;;;25.4;21.5;;;;;;;-0.6;80.7;99810.0;;;;
2020/12/11 02:00:08;;;;;;;25.4;21.5;;;;;;;-0.5;80.1;99810.0;;;;
2020/12/11 02:01:08;;;;;;;25.4;21.5;;;;;;;-0.6;80.4;99810.0;;;;
2020/12/11 02:02:09;;;;;;;25.4;21.5;;;;;;;-0.5;80.1;99810.0;;;;
2020/12/11 02:05:08;;;;;;;25.4;21.5;;;;;;;-0.6;80.1;99800.0;;;;
2020/12/11 02:16:07;;;;;;;25.4;21.5;;;;;;;-0.7;80.3;99790.0;;;;
2020/12/11 02:17:08;;;;;;;25.4;21.5;;;;;;;-0.6;80.3;99790.0;;;;
2020/12/11 02:21:08;;;;;;;25.4;21.5;;;;;;;-0.8;80.3;99790.0;;;;
2020/12/11 02:22:07;;;;;;;25.4;21.5;;;;;;;-0.6;80.4;99790.0;;;;
2020/12/11 02:24:07;;;;;;;25.4;21.5;;;;;;;-0.5;79.6;99780.0;;;;
2020/12/11 02:25:08;;;;;;;28.1;23.5;;;;;;;-0.6;79.7;99780.0;;;;
2020/12/11 02:27:07;;;;;;;28.1;23.5;;;;;;;-0.5;79.7;99780.0;;;;
2020/12/11 02:28:07;;;;;;;28.1;23.5;;;;;;;-0.7;79.9;99790.0;;;;
2020/12/11 02:29:07;;;;;;;28.1;23.5;;;;;;;-0.6;80.0;99790.0;;;;
2020/12/11 02:31:07;;;;;;;28.1;23.5;;;;;;;-0.7;80.2;99790.0;;;;
2020/12/11 02:32:07;;;;;;;28.1;23.5;;;;;;;-0.8;80.2;99790.0;;;;
2020/12/11 02:33:07;;;;;;;28.1;23.5;;;;;;;-0.7;80.2;99790.0;;;;
2020/12/11 02:38:09;;;;;;;28.1;23.5;;;;;;;-0.6;79.7;99800.0;;;;
2020/12/11 02:39:07;;;;;;;28.1;23.5;;;;;;;-0.7;79.8;99800.0;;;;
2020/12/11 02:41:08;;;;;;;28.1;23.5;;;;;;;-0.8;80.0;99800.0;;;;
2020/12/11 02:42:08;;;;;;;28.1;23.5;;;;;;;-0.6;79.8;99790.0;;;;
2020/12/11 02:44:07;;;;;;;28.1;23.5;;;;;;;-0.8;80.0;99800.0;;;;
2020/12/11 02:45:07;;;;;;;28.1;23.5;;;;;;;-0.7;79.8;99790.0;;;;
2020/12/11 02:46:07;;;;;;;28.1;23.5;;;;;;;-0.8;79.9;99790.0;;;;
2020/12/11 02:49:08;;;;;;;28.1;23.5;;;;;;;-0.7;79.8;99780.0;;;;
2020/12/11 02:50:07;;;;;;;28.1;23.5;;;;;;;-0.8;79.8;99780.0;;;;
2020/12/11 02:51:07;;;;;;;28.1;23.5;;;;;;;-0.7;79.5;99780.0;;;;
2020/12/11 02:54:07;;;;;;;28.1;23.5;;;;;;;-0.8;79.7;99780.0;;;;
2020/12/11 02:58:07;;;;;;;27.2;22.6;;;;;;;-0.9;80.0;99780.0;;;;
2020/12/11 02:59:07;;;;;;;27.2;22.6;;;;;;;-0.8;80.0;99780.0;;;;
2020/12/11 03:00:07;;;;;;;27.2;22.6;;;;;;;-0.9;80.1;99780.0;;;;
2020/12/11 03:03:07;;;;;;;27.2;22.6;;;;;;;-0.8;80.0;99770.0;;;;
2020/12/11 03:04:07;;;;;;;27.2;22.6;;;;;;;-0.9;79.8;99770.0;;;;
2020/12/11 03:05:07;;;;;;;27.2;22.6;;;;;;;-0.8;79.8;99770.0;;;;
2020/12/11 03:10:07;;;;;;;27.2;22.6;;;;;;;-0.9;79.9;99760.0;;;;
2020/12/11 03:13:07;;;;;;;27.2;22.6;;;;;;;-1.0;80.1;99750.0;;;;
2020/12/11 03:15:07;;;;;;;27.2;22.6;;;;;;;-0.9;80.2;99750.0;;;;
2020/12/11 03:16:08;;;;;;;27.2;22.6;;;;;;;-1.0;80.3;99740.0;;;;
2020/12/11 03:17:07;;;;;;;27.2;22.6;;;;;;;-0.9;80.1;99740.0;;;;
2020/12/11 03:21:07;;;;;;;27.2;22.6;;;;;;;-1.0;79.9;99740.0;;;;
2020/12/11 03:22:07;;;;;;;27.2;22.6;;;;;;;-1.1;80.4;99730.0;;;;
2020/12/11 03:25:07;;;;;;;26.8;23.1;;;;;;;-1.0;80.4;99730.0;;;;
2020/12/11 03:27:07;;;;;;;26.8;23.1;;;;;;;-0.9;80.3;99730.0;;;;
2020/12/11 03:28:08;;;;;;;26.8;23.1;;;;;;;-1.0;80.1;99730.0;;;;
2020/12/11 03:31:07;;;;;;;26.8;23.1;;;;;;;-0.9;80.2;99730.0;;;;
2020/12/11 03:37:07;;;;;;;26.8;23.1;;;;;;;-0.8;79.6;99710.0;;;;
2020/12/11 03:38:07;;;;;;;26.8;23.1;;;;;;;-0.9;79.7;99710.0;;;;
2020/12/11 03:47:07;;;;;;;26.8;23.1;;;;;;;-1.0;80.0;99680.0;;;;
2020/12/11 03:48:07;;;;;;;26.8;23.1;;;;;;;-0.9;79.9;99680.0;;;;
2020/12/11 03:49:07;;;;;;;26.8;23.1;;;;;;;-1.0;80.1;99680.0;;;;
2020/12/11 03:50:07;;;;;;;26.8;23.1;;;;;;;-1.1;80.5;99680.0;;;;
2020/12/11 03:52:07;;;;;;;26.8;23.1;;;;;;;-1.0;80.4;99670.0;;;;
2020/12/11 03:55:07;;;;;;;25.0;22.3;;;;;;;-1.1;80.5;99670.0;;;;
2020/12/11 03:57:07;;;;;;;25.0;22.3;;;;;;;-1.2;81.0;99670.0;;;;
2020/12/11 03:59:07;;;;;;;25.0;22.3;;;;;;;-1.3;81.4;99670.0;;;;
2020/12/11 04:00:07;;;;;;;25.0;22.3;;;;;;;-1.2;81.4;99670.0;;;;
2020/12/11 04:02:07;;;;;;;25.0;22.3;;;;;;;-1.0;81.0;99660.0;;;;
2020/12/11 04:03:07;;;;;;;25.0;22.3;;;;;;;-1.1;80.7;99660.0;;;;
2020/12/11 04:04:08;;;;;;;25.0;22.3;;;;;;;-1.0;80.8;99660.0;;;;
2020/12/11 04:05:07;;;;;;;25.0;22.3;;;;;;;-1.1;80.8;99660.0;;;;
2020/12/11 04:07:07;;;;;;;25.0;22.3;;;;;;;-0.9;80.8;99660.0;;;;
2020/12/11 04:09:07;;;;;;;25.0;22.3;;;;;;;-1.0;80.5;99650.0;;;;
2020/12/11 04:12:07;;;;;;;25.0;22.3;;;;;;;-0.9;80.5;99650.0;;;;
2020/12/11 04:18:07;;;;;;;25.0;22.3;;;;;;;-0.8;80.3;99640.0;;;;
2020/12/11 04:19:07;;;;;;;25.0;22.3;;;;;;;-0.9;80.3;99640.0;;;;
2020/12/11 04:20:07;;;;;;;25.0;22.3;;;;;;;-0.8;80.3;99640.0;;;;
2020/12/11 04:21:09;;;;;;;25.0;22.3;;;;;;;-0.9;80.2;99630.0;;;;
2020/12/11 04:25:07;;;;;;;23.7;21.1;;;;;;;-0.8;80.0;99620.0;;;;
2020/12/11 04:26:07;;;;;;;23.7;21.1;;;;;;;-0.9;80.0;99620.0;;;;
2020/12/11 04:28:07;;;;;;;23.7;21.1;;;;;;;-1.0;80.5;99610.0;;;;
2020/12/11 04:29:07;;;;;;;23.7;21.1;;;;;;;-1.1;80.8;99610.0;;;;
2020/12/11 04:30:07;;;;;;;23.7;21.1;;;;;;;-1.0;80.5;99610.0;;;;
2020/12/11 04:32:07;;;;;;;23.7;21.1;;;;;;;-0.9;80.5;99610.0;;;;
2020/12/11 04:34:07;;;;;;;23.7;21.1;;;;;;;-0.8;80.2;99590.0;;;;
2020/12/11 04:35:07;;;;;;;23.7;21.1;;;;;;;-0.9;80.1;99590.0;;;;
2020/12/11 04:37:07;;;;;;;23.7;21.1;;;;;;;-1.0;80.6;99580.0;;;;
2020/12/11 04:39:08;;;;;;;23.7;21.1;;;;;;;-0.9;80.7;99570.0;;;;
2020/12/11 04:42:10;;;;;;;23.7;21.1;;;;;;;-1.0;80.8;99570.0;;;;
2020/12/11 04:43:09;;;;;;;23.7;21.1;;;;;;;-0.8;80.6;99560.0;;;;
2020/12/11 04:44:08;;;;;;;23.7;21.1;;;;;;;-0.9;80.5;99560.0;;;;
2020/12/11 04:45:07;;;;;;;23.7;21.1;;;;;;;-0.8;80.6;99570.0;;;;
2020/12/11 04:50:10;;;;;;;23.7;21.1;;;;;;;-0.7;80.5;99560.0;;;;
2020/12/11 04:52:12;;;;;;;23.7;21.1;;;;;;;-0.6;80.4;99550.0;;;;
2020/12/11 04:54:11;;;;;;;24.8;22.1;;;;;;;-0.7;80.5;99540.0;;;;
2020/12/11 04:58:10;;;;;;;24.8;22.1;;;;;;;-0.6;80.5;99530.0;;;;
2020/12/11 05:01:10;;;;;;;24.8;22.1;;;;;;;-0.5;80.5;99520.0;;;;
2020/12/11 05:07:07;;;;;;;24.8;22.1;;;;;;;-0.4;80.2;99510.0;;;;
2020/12/11 05:09:10;;;;;;;24.8;22.1;;;;;;;-0.3;79.8;99500.0;;;;
2020/12/11 05:10:10;;;;;;;24.8;22.1;;;;;;;-0.2;79.7;99500.0;;;;
2020/12/11 05:11:07;;;;;;;24.8;22.1;;;;;;;-0.3;79.6;99490.0;;;;
2020/12/11 05:12:14;;;;;;;24.8;22.1;;;;;;;-0.4;79.7;99480.0;;;;
2020/12/11 05:14:19;;;;;;;24.8;22.1;;;;;;;-0.5;80.1;99480.0;;;;
2020/12/11 05:15:12;;;;;;;24.8;22.1;;;;;;;-0.4;80.0;99480.0;;;;
2020/12/11 05:16:09;;;;;;;24.8;22.1;;;;;;;-0.3;79.8;99480.0;;;;
2020/12/11 05:19:07;;;;;;;24.8;22.1;;;;;;;-0.2;79.9;99480.0;;;;
2020/12/11 05:20:09;;;;;;;24.8;22.1;;;;;;;-0.1;79.5;99470.0;;;;
2020/12/11 05:21:15;;;;;;;24.8;22.1;;;;;;;-0.2;79.4;99470.0;;;;
2020/12/11 05:28:07;;;;;;;24.8;22.1;;;;;;;-0.1;79.5;99460.0;;;;
2020/12/11 05:29:07;;;;;;;24.8;22.1;;;;;;;-0.2;79.3;99460.0;;;;
2020/12/11 05:30:19;;;;;;;24.8;22.1;;;;;;;0.0;79.4;99460.0;;;;
2020/12/11 05:31:07;;;;;;;24.8;22.1;;;;;;;-0.1;79.0;99450.0;;;;
2020/12/11 05:33:07;;;;;;;24.8;22.1;;;;;;;-0.2;79.3;99440.0;;;;
2020/12/11 05:35:26;;;;;;;24.8;22.1;;;;;;;-0.1;79.7;99440.0;;;;
2020/12/11 05:36:07;;;;;;;24.8;22.1;;;;;;;0.0;79.5;99430.0;;;;
2020/12/11 05:38:09;;;;;;;24.8;22.1;;;;;;;-0.1;79.2;99420.0;;;;
2020/12/11 05:39:07;;;;;;;24.8;22.1;;;;;;;-0.0;79.2;99420.0;;;;
2020/12/11 05:40:14;;;;;;;24.8;22.1;;;;;;;-0.1;79.3;99410.0;;;;
2020/12/11 05:41:07;;;;;;;24.8;22.1;;;;;;;-0.2;79.5;99410.0;;;;
2020/12/11 05:44:25;;;;;;;24.8;22.1;;;;;;;-0.1;79.7;99420.0;;;;
2020/12/11 05:46:07;;;;;;;24.8;22.1;;;;;;;0.0;79.2;99420.0;;;;
2020/12/11 05:49:22;;;;;;;24.8;22.1;;;;;;;-0.0;79.2;99420.0;;;;
2020/12/11 05:50:08;;;;;;;24.8;22.1;;;;;;;0.0;79.0;99410.0;;;;
2020/12/11 05:51:11;;;;;;;24.8;22.1;;;;;;;-0.1;79.1;99410.0;;;;
2020/12/11 05:52:11;;;;;;;24.8;22.1;;;;;;;-0.2;79.6;99400.0;;;;
2020/12/11 05:53:07;;;;;;;24.8;22.1;;;;;;;-0.1;79.7;99410.0;;;;
2020/12/11 05:56:07;;;;;;;24.5;21.8;;;;;;;-0.2;79.4;99410.0;;;;
2020/12/11 05:57:08;;;;;;;24.5;21.8;;;;;;;-0.1;79.6;99410.0;;;;
2020/12/11 05:58:09;;;;;;;24.5;21.8;;;;;;;-0.2;79.4;99400.0;;;;
2020/12/11 06:00:07;;;;;;;24.5;21.8;;;;;;;-0.0;79.3;99410.0;;;;
2020/12/11 06:01:16;;;;;;;24.5;21.8;;;;;;;0.0;79.1;99400.0;;;;
2020/12/11 06:05:10;;;;;;;24.5;21.8;;;;;;;-0.1;78.8;99400.0;;;;
2020/12/11 06:11:16;;;;;;;24.5;21.8;;;;;;;-0.2;79.2;99390.0;;;;
2020/12/11 06:17:08;;;;;;;24.5;21.8;;;;;;;-0.1;79.1;99380.0;;;;
2020/12/11 06:19:08;;;;;;;24.5;21.8;;;;;;;-0.2;79.4;99380.0;;;;
2020/12/11 06:21:09;;;;;;;24.5;21.8;;;;;;;-0.1;79.3;99380.0;;;;
2020/12/11 06:24:27;;;;;;;25.6;22.9;;;;;;;-0.2;79.2;99380.0;;;;
2020/12/11 06:28:07;;;;;;;25.6;22.9;;;;;;;-0.3;79.5;99380.0;;;;
2020/12/11 06:29:24;;;;;;;25.6;22.9;;;;;;;-0.2;79.6;99380.0;;;;
2020/12/11 06:30:25;;;;;;;25.6;22.9;;;;;;;-0.1;79.5;99380.0;;;;
2020/12/11 06:32:08;;;;;;;25.6;22.9;;;;;;;0.0;79.2;99370.0;;;;
2020/12/11 06:33:07;;;;;;;25.6;22.9;;;;;;;-0.1;78.9;99370.0;;;;
2020/12/11 06:36:07;;;;;;;25.6;22.9;;;;;;;-0.2;79.3;99380.0;;;;
2020/12/11 06:37:07;;;;;;;25.6;22.9;;;;;;;-0.1;79.5;99370.0;;;;
2020/12/11 06:38:07;;;;;;;25.6;22.9;;;;;;;0.0;79.1;99380.0;;;;
2020/12/11 06:39:08;;;;;;;25.6;22.9;;;;;;;0.1;79.1;99380.0;;;;
2020/12/11 06:40:08;;;;;;;25.6;22.9;;;;;;;0.0;79.1;99370.0;;;;
2020/12/11 06:41:08;;;;;;;25.6;22.9;;;;;;;-0.1;79.1;99370.0;;;;
2020/12/11 06:42:09;;;;;;;25.6;22.9;;;;;;;-0.0;79.2;99370.0;;;;
2020/12/11 06:43:07;;;;;;;25.6;22.9;;;;;;;0.0;79.2;99370.0;;;;
2020/12/11 06:44:17;;;;;;;25.6;22.9;;;;;;;-0.1;79.2;99370.0;;;;
2020/12/11 06:45:19;;;;;;;25.6;22.9;;;;;;;-0.0;79.5;99360.0;;;;
2020/12/11 06:46:13;;;;;;;25.6;22.9;;;;;;;0.1;79.1;99360.0;;;;
2020/12/11 06:47:09;;;;;;;25.6;22.9;;;;;;;0.0;79.0;99360.0;;;;
2020/12/11 06:48:12;;;;;;;25.6;22.9;;;;;;;0.1;79.2;99360.0;;;;
2020/12/11 06:50:07;;;;;;;25.6;22.9;;;;;;;-0.0;79.1;99360.0;;;;
2020/12/11 06:51:07;;;;;;;25.6;22.9;;;;;;;0.1;79.1;99360.0;;;;
2020/12/11 06:52:09;;;;;;;25.6;22.9;;;;;;;0.0;78.8;99360.0;;;;
2020/12/11 06:53:27;;;;;;;24.6;22.1;;;;;;;0.1;79.0;99350.0;;;;
2020/12/11 06:55:07;;;;;;;24.6;22.1;;;;;;;0.0;79.3;99350.0;;;;
2020/12/11 06:56:07;;;;;;;24.6;22.1;;;;;;;0.1;79.1;99360.0;;;;
2020/12/11 07:01:08;;;;;;;24.6;22.1;;;;;;;0.2;78.9;99350.0;;;;
2020/12/11 07:03:20;;;;;;;24.6;22.1;;;;;;;0.1;78.7;99350.0;;;;
2020/12/11 07:07:08;;;;;;;24.6;22.1;;;;;;;0.0;79.1;99340.0;;;;
2020/12/11 07:08:16;;;;;;;24.6;22.1;;;;;;;0.1;79.2;99340.0;;;;
2020/12/11 07:10:08;;;;;;;24.6;22.1;;;;;;;0.2;79.0;99340.0;;;;
2020/12/11 07:14:07;;;;;;;24.6;22.1;;;;;;;0.3;78.5;99330.0;;;;
2020/12/11 07:16:07;;;;;;;24.6;22.1;;;;;;;0.2;78.6;99330.0;;;;
2020/12/11 07:18:16;;;;;;;24.6;22.1;;;;;;;0.3;78.9;99330.0;;;;
2020/12/11 07:21:08;;;;;;;24.6;22.1;;;;;;;0.2;78.8;99330.0;;;;
2020/12/11 07:22:08;;;;;;;24.6;22.1;;;;;;;0.4;78.7;99330.0;;;;
2020/12/11 07:24:07;;;;;;;22.8;20.4;;;;;;;0.5;78.5;99330.0;;;;
2020/12/11 07:26:08;;;;;;;22.8;20.4;;;;;;;0.4;78.3;99330.0;;;;
2020/12/11 07:28:07;;;;;;;22.8;20.4;;;;;;;0.3;78.7;99330.0;;;;
2020/12/11 07:31:11;;;;;;;22.8;20.4;;;;;;;0.4;78.7;99320.0;;;;
2020/12/11 07:33:10;;;;;;;22.8;20.4;;;;;;;0.3;78.8;99320.0;;;;
2020/12/11 07:34:13;;;;;;;22.8;20.4;;;;;;;0.4;78.7;99320.0;;;;
2020/12/11 07:36:07;;;;;;;22.8;20.4;;;;;;;0.5;78.5;99320.0;;;;
2020/12/11 07:38:07;;;;;;;22.8;20.4;;;;;;;0.4;78.6;99320.0;;;;
2020/12/11 07:40:12;;;;;;;22.8;20.4;;;;;;;0.5;78.6;99310.0;;;;
2020/12/11 07:41:07;;;;;;;22.8;20.4;;;;;;;0.4;78.4;99320.0;;;;
2020/12/11 07:42:09;;;;;;;22.8;20.4;;;;;;;0.5;78.5;99310.0;;;;
2020/12/11 07:48:07;;;;;;;22.8;20.4;;;;;;;0.4;78.3;99310.0;;;;
2020/12/11 07:50:07;;;;;;;22.8;20.4;;;;;;;0.6;78.4;99310.0;;;;
2020/12/11 07:52:09;;;;;;;22.8;20.4;;;;;;;0.5;78.6;99310.0;;;;
2020/12/11 07:53:09;;;;;;;23.4;20.9;;;;;;;0.4;78.5;99300.0;;;;
2020/12/11 07:54:07;;;;;;;23.4;20.9;;;;;;;0.5;78.6;99310.0;;;;
2020/12/11 07:55:10;;;;;;;23.4;20.9;;;;;;;0.7;78.4;99310.0;;;;
2020/12/11 07:57:09;;;;;;;23.4;20.9;;;;;;;0.6;78.2;99300.0;;;;
2020/12/11 07:59:08;;;;;;;23.4;20.9;;;;;;;0.7;78.5;99300.0;;;;
2020/12/11 08:00:08;;;;;;;23.4;20.9;;;;;;;0.6;78.4;99290.0;;;;
2020/12/11 08:01:07;;;;;;;23.4;20.9;;;;;;;0.5;78.7;99290.0;;;;
2020/12/11 08:03:08;;;;;;;23.4;20.9;;;;;;;0.6;79.0;99300.0;;;;
2020/12/11 08:04:07;;;;;;;23.4;20.9;;;;;;;0.5;78.8;99290.0;;;;
2020/12/11 08:07:07;;;;;;;23.4;20.9;;;;;;;0.6;78.8;99290.0;;;;
2020/12/11 08:08:08;;;;;;;23.4;20.9;;;;;;;0.5;78.9;99290.0;;;;
2020/12/11 08:11:22;;;;;;;23.4;20.9;;;;;;;0.6;78.8;99280.0;;;;
2020/12/11 08:13:11;;;;;;;23.4;20.9;;;;;;;0.5;79.2;99280.0;;;;
2020/12/11 08:14:08;;;;;;;23.4;20.9;;;;;;;0.6;79.3;99280.0;;;;
2020/12/11 08:15:08;;;;;;;23.4;20.9;;;;;;;0.7;79.0;99280.0;;;;
2020/12/11 08:17:08;;;;;;;23.4;20.9;;;;;;;0.6;79.2;99270.0;;;;
2020/12/11 08:19:09;;;;;;;23.4;20.9;;;;;;;0.4;79.7;99270.0;;;;
2020/12/11 08:20:08;;;;;;;23.4;20.9;;;;;;;0.5;79.9;99270.0;;;;
2020/12/11 08:22:11;;;;;;;23.4;20.9;;;;;;;0.6;79.8;99270.0;;;;
2020/12/11 08:24:07;;;;;;;25.1;22.5;;;;;;;0.7;79.8;99270.0;;;;
2020/12/11 08:25:17;;;;;;;25.1;22.5;;;;;;;0.8;79.5;99270.0;;;;
2020/12/11 08:26:39;;;;;;;25.1;22.5;;;;;;;0.8;79.4;99270.0;;;;
2020/12/11 08:29:08;;;;;;;25.1;22.5;;;;;;;0.7;79.3;99270.0;;;;
2020/12/11 08:30:10;;;;;;;25.1;22.5;;;;;;;0.8;79.4;99270.0;;;;
2020/12/11 08:33:09;;;;;;;25.1;22.5;;;;;;;0.9;78.9;99270.0;;;;
2020/12/11 08:36:20;;;;;;;25.1;22.5;;;;;;;1.0;78.8;99270.0;;;;
2020/12/11 08:37:09;;;;;;;25.1;22.5;;;;;;;0.9;78.5;99270.0;;;;
2020/12/11 08:38:10;;;;;;;25.1;22.5;;;;;;;0.8;78.7;99270.0;;;;
2020/12/11 08:39:18;;;;;;;25.1;22.5;;;;;;;0.9;79.1;99260.0;;;;
2020/12/11 08:42:16;;;;;;;25.1;22.5;;;;;;;1.0;78.7;99260.0;;;;
2020/12/11 08:46:14;;;;;;;25.1;22.5;;;;;;;0.8;78.8;99260.0;;;;
2020/12/11 08:49:13;;;;;;;25.1;22.5;;;;;;;0.9;79.3;99250.0;;;;
2020/12/11 08:51:07;;;;;;;25.1;22.5;;;;;;;1.0;78.6;99250.0;;;;
2020/12/11 08:54:08;;;;;;;23.9;21.3;;;;;;;1.1;78.6;99250.0;;;;
2020/12/11 08:57:07;;;;;;;23.9;21.3;;;;;;;1.2;78.4;99260.0;;;;
2020/12/11 08:58:08;;;;;;;23.9;21.3;;;;;;;1.1;78.4;99250.0;;;;
2020/12/11 08:59:07;;;;;;;23.9;21.3;;;;;;;1.2;78.3;99250.0;;;;
2020/12/11 09:00:07;;;;;;;23.9;21.3;;;;;;;1.0;78.4;99250.0;;;;
2020/12/11 09:01:07;;;;;;;23.9;21.3;;;;;;;1.1;78.6;99250.0;;;;
2020/12/11 09:04:07;;;;;;;23.9;21.3;;;;;;;1.2;78.1;99250.0;;;;
2020/12/11 09:05:07;;;;;;;23.9;21.3;;;;;;;1.1;78.2;99250.0;;;;
2020/12/11 09:08:07;;;;;;;23.9;21.3;;;;;;;1.0;78.4;99250.0;;;;
2020/12/11 09:09:07;;;;;;;23.9;21.3;;;;;;;1.2;78.5;99250.0;;;;
2020/12/11 09:11:07;;;;;;;23.9;21.3;;;;;;;1.1;78.6;99250.0;;;;
2020/12/11 09:12:07;;;;;;;23.9;21.3;;;;;;;1.2;78.9;99250.0;;;;
2020/12/11 09:13:09;;;;;;;23.9;21.3;;;;;;;1.1;78.5;99250.0;;;;
2020/12/11 09:14:07;;;;;;;23.9;21.3;;;;;;;1.2;78.4;99240.0;;;;
2020/12/11 09:15:08;;;;;;;23.9;21.3;;;;;;;1.1;78.3;99240.0;;;;
2020/12/11 09:16:07;;;;;;;23.9;21.3;;;;;;;1.0;78.7;99240.0;;;;
2020/12/11 09:17:07;;;;;;;23.9;21.3;;;;;;;1.1;78.9;99240.0;;;;
2020/12/11 09:18:07;;;;;;;23.9;21.3;;;;;;;1.0;78.7;99240.0;;;;
2020/12/11 09:21:07;;;;;;;23.9;21.3;;;;;;;1.2;79.1;99240.0;;;;
2020/12/11 09:22:07;;;;;;;23.9;21.3;;;;;;;1.3;78.6;99240.0;;;;
2020/12/11 09:23:07;;;;;;;23.4;20.9;;;;;;;1.4;78.1;99230.0;;;;
2020/12/11 09:24:08;;;;;;;23.4;20.9;;;;;;;1.3;78.2;99230.0;;;;
2020/12/11 09:25:08;;;;;;;23.4;20.9;;;;;;;1.4;78.4;99230.0;;;;
2020/12/11 09:26:07;;;;;;;23.4;20.9;;;;;;;1.5;77.7;99230.0;;;;
2020/12/11 09:27:08;;;;;;;23.4;20.9;;;;;;;1.4;78.3;99230.0;;;;
2020/12/11 09:33:10;;;;;;;23.4;20.9;;;;;;;1.5;78.2;99220.0;;;;
2020/12/11 09:37:07;;;;;;;23.4;20.9;;;;;;;1.3;78.2;99230.0;;;;
2020/12/11 09:38:07;;;;;;;23.4;20.9;;;;;;;1.2;78.4;99220.0;;;;
2020/12/11 09:40:07;;;;;;;23.4;20.9;;;;;;;1.3;78.6;99220.0;;;;
2020/12/11 09:41:09;;;;;;;23.4;20.9;;;;;;;1.4;78.6;99230.0;;;;
2020/12/11 09:42:18;;;;;;;23.4;20.9;;;;;;;1.3;78.6;99220.0;;;;
2020/12/11 09:48:14;;;;;;;23.4;20.9;;;;;;;1.5;78.4;99220.0;;;;
2020/12/11 09:51:17;;;;;;;23.4;20.9;;;;;;;1.8;78.1;99210.0;;;;
2020/12/11 09:52:22;;;;;;;22.8;20.5;;;;;;;1.7;77.8;99210.0;;;;
2020/12/11 09:53:17;;;;;;;22.8;20.5;;;;;;;1.6;77.9;99210.0;;;;
2020/12/11 09:55:09;;;;;;;22.8;20.5;;;;;;;1.8;78.1;99210.0;;;;
2020/12/11 09:59:12;;;;;;;22.8;20.5;;;;;;;1.9;77.9;99200.0;;;;
2020/12/11 10:00:08;;;;;;;22.8;20.5;;;;;;;1.8;77.3;99200.0;;;;
2020/12/11 10:01:08;;;;;;;22.8;20.5;;;;;;;1.6;77.8;99200.0;;;;
2020/12/11 10:02:14;;;;;;;22.8;20.5;;;;;;;1.7;78.0;99200.0;;;;
2020/12/11 10:04:07;;;;;;;22.8;20.5;;;;;;;1.8;77.9;99190.0;;;;
2020/12/11 10:06:08;;;;;;;22.8;20.5;;;;;;;2.0;77.6;99190.0;;;;
2020/12/11 10:09:07;;;;;;;22.8;20.5;;;;;;;2.2;77.1;99180.0;;;;
2020/12/11 10:10:07;;;;;;;22.8;20.5;;;;;;;2.0;76.8;99180.0;;;;
2020/12/11 10:11:07;;;;;;;22.8;20.5;;;;;;;1.8;77.5;99180.0;;;;
2020/12/11 10:12:07;;;;;;;22.8;20.5;;;;;;;1.9;77.7;99180.0;;;;
2020/12/11 10:15:09;;;;;;;22.8;20.5;;;;;;;2.0;77.7;99180.0;;;;
2020/12/11 10:21:08;;;;;;;22.8;20.5;;;;;;;2.2;77.3;99180.0;;;;
2020/12/11 10:24:07;;;;;;;21.8;19.5;;;;;;;2.3;77.2;99170.0;;;;
2020/12/11 10:25:07;;;;;;;21.8;19.5;;;;;;;2.4;77.0;99170.0;;;;
2020/12/11 10:26:07;;;;;;;21.8;19.5;;;;;;;2.2;76.8;99170.0;;;;
2020/12/11 10:31:07;;;;;;;21.8;19.5;;;;;;;2.3;77.1;99170.0;;;;
2020/12/11 10:34:09;;;;;;;21.8;19.5;;;;;;;2.2;77.3;99170.0;;;;
2020/12/11 10:36:07;;;;;;;21.8;19.5;;;;;;;2.3;77.7;99170.0;;;;
2020/12/11 10:37:08;;;;;;;21.8;19.5;;;;;;;2.4;77.2;99180.0;;;;
2020/12/11 10:39:09;;;;;;;21.8;19.5;;;;;;;2.5;76.9;99170.0;;;;
2020/12/11 10:42:07;;;;;;;21.8;19.5;;;;;;;2.4;77.1;99170.0;;;;
2020/12/11 10:43:07;;;;;;;21.8;19.5;;;;;;;2.5;77.0;99170.0;;;;
2020/12/11 10:44:08;;;;;;;21.8;19.5;;;;;;;2.4;77.1;99170.0;;;;
2020/12/11 10:46:09;;;;;;;21.8;19.5;;;;;;;2.2;78.1;99170.0;;;;
2020/12/11 10:47:07;;;;;;;21.8;19.5;;;;;;;2.3;78.4;99170.0;;;;
2020/12/11 10:48:07;;;;;;;21.8;19.5;;;;;;;2.4;78.5;99170.0;;;;
2020/12/11 10:50:07;;;;;;;21.8;19.5;;;;;;;2.5;78.5;99160.0;;;;
2020/12/11 10:51:09;;;;;;;21.8;19.5;;;;;;;2.6;78.5;99160.0;;;;
2020/12/11 10:53:07;;;;;;;22.3;19.7;;;;;;;2.5;78.8;99160.0;;;;
2020/12/11 10:57:07;;;;;;;22.3;19.7;;;;;;;2.4;79.7;99160.0;;;;
2020/12/11 10:59:07;;;;;;;22.3;19.7;;;;;;;2.5;80.1;99150.0;;;;
2020/12/11 11:01:09;;;;;;;22.3;19.7;;;;;;;2.4;80.3;99150.0;;;;
2020/12/11 11:02:07;;;;;;;22.3;19.7;;;;;;;2.3;80.7;99140.0;;;;
2020/12/11 11:03:07;;;;;;;22.3;19.7;;;;;;;2.5;80.4;99140.0;;;;
2020/12/11 11:04:08;;;;;;;22.3;19.7;;;;;;;2.4;80.5;99140.0;;;;
2020/12/11 11:06:12;;;;;;;22.3;19.7;;;;;;;2.2;81.7;99130.0;;;;
2020/12/11 11:07:10;;;;;;;22.3;19.7;;;;;;;2.3;81.3;99130.0;;;;
2020/12/11 11:09:17;;;;;;;22.3;19.7;;;;;;;2.4;80.8;99130.0;;;;
2020/12/11 11:10:21;;;;;;;22.3;19.7;;;;;;;2.3;81.1;99130.0;;;;
2020/12/11 11:11:07;;;;;;;22.3;19.7;;;;;;;2.4;80.9;99130.0;;;;
2020/12/11 11:12:18;;;;;;;22.3;19.7;;;;;;;2.3;80.8;99130.0;;;;
2020/12/11 11:13:15;;;;;;;22.3;19.7;;;;;;;2.4;80.9;99120.0;;;;
2020/12/11 11:14:21;;;;;;;22.3;19.7;;;;;;;2.5;80.7;99120.0;;;;
2020/12/11 11:16:07;;;;;;;22.3;19.7;;;;;;;2.4;81.0;99120.0;;;;
2020/12/11 11:22:18;;;;;;;23.0;20.5;;;;;;;2.3;81.2;99110.0;;;;
2020/12/11 11:25:28;;;;;;;23.0;20.5;;;;;;;2.4;81.5;99100.0;;;;
2020/12/11 11:30:07;;;;;;;23.0;20.5;;;;;;;2.3;81.5;99100.0;;;;
2020/12/11 11:31:09;;;;;;;23.0;20.5;;;;;;;2.4;81.6;99100.0;;;;
2020/12/11 11:32:07;;;;;;;23.0;20.5;;;;;;;2.6;81.2;99100.0;;;;
2020/12/11 11:33:07;;;;;;;23.0;20.5;;;;;;;2.5;81.1;99100.0;;;;
2020/12/11 11:35:07;;;;;;;23.0;20.5;;;;;;;2.4;81.6;99090.0;;;;
2020/12/11 11:37:07;;;;;;;23.0;20.5;;;;;;;2.5;81.7;99090.0;;;;
2020/12/11 11:38:10;;;;;;;23.0;20.5;;;;;;;2.3;82.0;99090.0;;;;
2020/12/11 11:40:07;;;;;;;23.0;20.5;;;;;;;2.4;82.1;99080.0;;;;
2020/12/11 11:43:08;;;;;;;23.0;20.5;;;;;;;2.3;82.2;99080.0;;;;
2020/12/11 11:44:28;;;;;;;23.0;20.5;;;;;;;2.5;82.1;99080.0;;;;
2020/12/11 11:47:08;;;;;;;23.0;20.5;;;;;;;2.6;81.9;99070.0;;;;
2020/12/11 11:49:09;;;;;;;23.0;20.5;;;;;;;2.5;81.8;99070.0;;;;
2020/12/11 11:51:11;;;;;;;23.0;20.5;;;;;;;2.6;82.0;99070.0;;;;
2020/12/11 11:52:16;;;;;;;22.4;20.0;;;;;;;2.7;81.9;99070.0;;;;
2020/12/11 11:54:07;;;;;;;22.4;20.0;;;;;;;2.8;81.7;99060.0;;;;
2020/12/11 11:56:07;;;;;;;22.4;20.0;;;;;;;2.7;81.6;99060.0;;;;
2020/12/11 11:57:07;;;;;;;22.4;20.0;;;;;;;2.8;81.5;99060.0;;;;
2020/12/11 11:58:08;;;;;;;22.4;20.0;;;;;;;2.9;81.4;99050.0;;;;
2020/12/11 11:59:07;;;;;;;22.4;20.0;;;;;;;2.8;81.2;99060.0;;;;
2020/12/11 12:01:07;;;;;;;22.4;20.0;;;;;;;2.7;81.6;99060.0;;;;
2020/12/11 12:02:07;;;;;;;22.4;20.0;;;;;;;2.8;81.4;99050.0;;;;
2020/12/11 12:05:09;;;;;;;22.4;20.0;;;;;;;2.9;81.4;99050.0;;;;
2020/12/11 12:11:07;;;;;;;22.4;20.0;;;;;;;2.8;81.3;99040.0;;;;
2020/12/11 12:12:07;;;;;;;22.4;20.0;;;;;;;2.7;81.5;99040.0;;;;
2020/12/11 12:13:07;;;;;;;22.4;20.0;;;;;;;2.8;81.6;99040.0;;;;
2020/12/11 12:16:07;;;;;;;22.4;20.0;;;;;;;2.7;81.4;99030.0;;;;
2020/12/11 12:20:10;;;;;;;22.4;20.0;;;;;;;2.6;81.3;99030.0;;;;
2020/12/11 12:21:13;;;;;;;22.4;20.0;;;;;;;2.7;81.5;99030.0;;;;